sensor_id;sensor_type;location;lat;lon;timestamp;P1;durP1;ratioP1;P2;durP2;ratioP2
47966;SDS011;33733;52.456;13.620;2023-06-22T00:01:23;9.48;;;4.82;;
47966;SDS011;33733;52.456;13.620;2023-06-22T00:03:50;10.40;;;6.53;;
47966;SDS011;33733;52.456;13.620;2023-06-22T00:06:22;10.55;;;6.40;;
47966;SDS011;33733;52.456;13.620;2023-06-22T00:08:49;10.45;;;6.75;;
47966;SDS011;33733;52.456;13.620;2023-06-22T00:11:18;11.93;;;6.75;;
47966;SDS011;33733;52.456;13.620;2023-06-22T00:13:46;12.02;;;7.38;;
47966;SDS011;33733;52.456;13.620;2023-06-22T00:16:21;9.57;;;6.22;;
47966;SDS011;33733;52.456;13.620;2023-06-22T00:18:54;11.93;;;6.63;;
47966;SDS011;33733;52.456;13.620;2023-06-22T00:21:21;10.93;;;7.15;;
47966;SDS011;33733;52.456;13.620;2023-06-22T00:23:53;10.70;;;7.38;;
47966;SDS011;33733;52.456;13.620;2023-06-22T00:26:20;10.55;;;5.13;;
47966;SDS011;33733;52.456;13.620;2023-06-22T00:28:47;9.02;;;4.82;;
47966;SDS011;33733;52.456;13.620;2023-06-22T00:31:14;9.82;;;5.38;;
47966;SDS011;33733;52.456;13.620;2023-06-22T00:33:43;8.32;;;4.18;;
47966;SDS011;33733;52.456;13.620;2023-06-22T00:36:10;10.23;;;4.57;;
47966;SDS011;33733;52.456;13.620;2023-06-22T00:38:39;8.82;;;5.10;;
47966;SDS011;33733;52.456;13.620;2023-06-22T00:41:07;11.70;;;7.28;;
47966;SDS011;33733;52.456;13.620;2023-06-22T00:43:37;9.02;;;4.63;;
47966;SDS011;33733;52.456;13.620;2023-06-22T00:46:03;10.32;;;6.30;;
47966;SDS011;33733;52.456;13.620;2023-06-22T00:48:30;12.20;;;6.45;;
47966;SDS011;33733;52.456;13.620;2023-06-22T00:51:18;9.25;;;6.18;;
47966;SDS011;33733;52.456;13.620;2023-06-22T00:54:05;9.55;;;6.35;;
47966;SDS011;33733;52.456;13.620;2023-06-22T00:56:33;10.40;;;6.28;;
47966;SDS011;33733;52.456;13.620;2023-06-22T00:59:16;8.77;;;4.43;;
47966;SDS011;33733;52.456;13.620;2023-06-22T01:01:48;9.25;;;6.25;;
47966;SDS011;33733;52.456;13.620;2023-06-22T01:09:22;8.82;;;5.22;;
47966;SDS011;33733;52.456;13.620;2023-06-22T01:11:53;7.97;;;4.40;;
47966;SDS011;33733;52.456;13.620;2023-06-22T01:14:24;11.60;;;6.32;;
47966;SDS011;33733;52.456;13.620;2023-06-22T01:16:55;8.02;;;4.32;;
47966;SDS011;33733;52.456;13.620;2023-06-22T01:22:15;7.50;;;3.72;;
47966;SDS011;33733;52.456;13.620;2023-06-22T01:30:12;8.25;;;4.53;;
47966;SDS011;33733;52.456;13.620;2023-06-22T01:32:40;8.60;;;4.15;;
47966;SDS011;33733;52.456;13.620;2023-06-22T01:35:08;8.55;;;4.78;;
47966;SDS011;33733;52.456;13.620;2023-06-22T01:37:35;9.82;;;5.63;;
47966;SDS011;33733;52.456;13.620;2023-06-22T01:40:03;9.85;;;5.88;;
47966;SDS011;33733;52.456;13.620;2023-06-22T01:42:32;9.05;;;6.07;;
47966;SDS011;33733;52.456;13.620;2023-06-22T01:44:59;8.95;;;5.90;;
47966;SDS011;33733;52.456;13.620;2023-06-22T01:47:26;9.85;;;6.55;;
47966;SDS011;33733;52.456;13.620;2023-06-22T01:49:54;9.38;;;6.13;;
47966;SDS011;33733;52.456;13.620;2023-06-22T01:52:21;9.43;;;5.75;;
47966;SDS011;33733;52.456;13.620;2023-06-22T01:54:48;9.90;;;6.40;;
47966;SDS011;33733;52.456;13.620;2023-06-22T01:57:15;9.63;;;5.90;;
47966;SDS011;33733;52.456;13.620;2023-06-22T02:02:21;9.85;;;5.80;;
47966;SDS011;33733;52.456;13.620;2023-06-22T02:04:55;14.85;;;6.30;;
47966;SDS011;33733;52.456;13.620;2023-06-22T02:07:25;8.48;;;4.45;;
47966;SDS011;33733;52.456;13.620;2023-06-22T02:10:02;10.02;;;5.88;;
47966;SDS011;33733;52.456;13.620;2023-06-22T02:14:56;8.63;;;5.30;;
47966;SDS011;33733;52.456;13.620;2023-06-22T02:17:25;9.38;;;6.13;;
47966;SDS011;33733;52.456;13.620;2023-06-22T02:19:52;9.10;;;4.43;;
47966;SDS011;33733;52.456;13.620;2023-06-22T02:22:19;9.35;;;4.75;;
47966;SDS011;33733;52.456;13.620;2023-06-22T02:24:46;9.00;;;5.13;;
47966;SDS011;33733;52.456;13.620;2023-06-22T02:27:12;9.10;;;5.50;;
47966;SDS011;33733;52.456;13.620;2023-06-22T02:29:39;10.50;;;6.18;;
47966;SDS011;33733;52.456;13.620;2023-06-22T02:32:07;10.00;;;6.72;;
47966;SDS011;33733;52.456;13.620;2023-06-22T02:34:34;8.27;;;4.47;;
47966;SDS011;33733;52.456;13.620;2023-06-22T02:37:03;8.90;;;4.75;;
47966;SDS011;33733;52.456;13.620;2023-06-22T02:39:30;8.98;;;5.78;;
47966;SDS011;33733;52.456;13.620;2023-06-22T02:41:57;9.05;;;4.30;;
47966;SDS011;33733;52.456;13.620;2023-06-22T02:44:23;10.45;;;6.45;;
47966;SDS011;33733;52.456;13.620;2023-06-22T02:46:50;13.13;;;4.75;;
47966;SDS011;33733;52.456;13.620;2023-06-22T02:49:17;9.88;;;6.68;;
47966;SDS011;33733;52.456;13.620;2023-06-22T02:51:47;10.18;;;6.10;;
47966;SDS011;33733;52.456;13.620;2023-06-22T02:54:17;9.00;;;4.57;;
47966;SDS011;33733;52.456;13.620;2023-06-22T02:59:12;8.63;;;4.60;;
47966;SDS011;33733;52.456;13.620;2023-06-22T03:01:39;9.98;;;5.82;;
47966;SDS011;33733;52.456;13.620;2023-06-22T03:04:28;9.43;;;4.90;;
47966;SDS011;33733;52.456;13.620;2023-06-22T03:06:57;8.57;;;4.25;;
47966;SDS011;33733;52.456;13.620;2023-06-22T03:09:28;9.23;;;5.13;;
47966;SDS011;33733;52.456;13.620;2023-06-22T03:11:56;8.93;;;4.63;;
47966;SDS011;33733;52.456;13.620;2023-06-22T03:14:27;11.30;;;6.22;;
47966;SDS011;33733;52.456;13.620;2023-06-22T03:16:54;11.32;;;6.40;;
47966;SDS011;33733;52.456;13.620;2023-06-22T03:19:21;9.77;;;5.88;;
47966;SDS011;33733;52.456;13.620;2023-06-22T03:21:48;11.05;;;6.72;;
47966;SDS011;33733;52.456;13.620;2023-06-22T03:24:14;10.43;;;6.20;;
47966;SDS011;33733;52.456;13.620;2023-06-22T03:26:41;11.63;;;5.80;;
47966;SDS011;33733;52.456;13.620;2023-06-22T03:29:07;9.68;;;5.97;;
47966;SDS011;33733;52.456;13.620;2023-06-22T03:31:34;9.95;;;6.05;;
47966;SDS011;33733;52.456;13.620;2023-06-22T03:34:01;10.10;;;6.95;;
47966;SDS011;33733;52.456;13.620;2023-06-22T03:36:28;9.70;;;5.28;;
47966;SDS011;33733;52.456;13.620;2023-06-22T03:38:56;9.68;;;6.70;;
47966;SDS011;33733;52.456;13.620;2023-06-22T03:41:22;10.43;;;6.38;;
47966;SDS011;33733;52.456;13.620;2023-06-22T03:43:49;9.77;;;6.43;;
47966;SDS011;33733;52.456;13.620;2023-06-22T03:46:16;10.35;;;6.10;;
47966;SDS011;33733;52.456;13.620;2023-06-22T03:48:43;11.02;;;6.85;;
47966;SDS011;33733;52.456;13.620;2023-06-22T03:51:09;9.85;;;5.68;;
47966;SDS011;33733;52.456;13.620;2023-06-22T03:53:36;11.40;;;6.75;;
47966;SDS011;33733;52.456;13.620;2023-06-22T03:56:03;11.00;;;6.97;;
47966;SDS011;33733;52.456;13.620;2023-06-22T03:58:30;11.07;;;6.47;;
47966;SDS011;33733;52.456;13.620;2023-06-22T04:00:59;10.70;;;6.25;;
47966;SDS011;33733;52.456;13.620;2023-06-22T04:03:26;12.25;;;7.32;;
47966;SDS011;33733;52.456;13.620;2023-06-22T04:05:53;10.20;;;6.45;;
47966;SDS011;33733;52.456;13.620;2023-06-22T04:08:20;9.55;;;5.35;;
47966;SDS011;33733;52.456;13.620;2023-06-22T04:10:46;11.15;;;7.38;;
47966;SDS011;33733;52.456;13.620;2023-06-22T04:13:13;8.75;;;5.00;;
47966;SDS011;33733;52.456;13.620;2023-06-22T04:15:39;9.43;;;5.70;;
47966;SDS011;33733;52.456;13.620;2023-06-22T04:18:06;12.80;;;7.20;;
47966;SDS011;33733;52.456;13.620;2023-06-22T04:20:32;10.70;;;7.28;;
47966;SDS011;33733;52.456;13.620;2023-06-22T04:22:59;11.50;;;7.10;;
47966;SDS011;33733;52.456;13.620;2023-06-22T04:25:26;9.73;;;5.75;;
47966;SDS011;33733;52.456;13.620;2023-06-22T04:27:52;11.80;;;6.05;;
47966;SDS011;33733;52.456;13.620;2023-06-22T04:30:19;10.73;;;7.28;;
47966;SDS011;33733;52.456;13.620;2023-06-22T04:32:46;9.88;;;4.88;;
47966;SDS011;33733;52.456;13.620;2023-06-22T04:35:24;9.05;;;6.45;;
47966;SDS011;33733;52.456;13.620;2023-06-22T04:37:52;9.32;;;4.53;;
47966;SDS011;33733;52.456;13.620;2023-06-22T04:40:22;10.40;;;6.30;;
47966;SDS011;33733;52.456;13.620;2023-06-22T04:42:49;9.95;;;5.75;;
47966;SDS011;33733;52.456;13.620;2023-06-22T04:45:19;8.23;;;4.28;;
47966;SDS011;33733;52.456;13.620;2023-06-22T04:47:47;7.72;;;4.25;;
47966;SDS011;33733;52.456;13.620;2023-06-22T04:50:14;8.00;;;4.55;;
47966;SDS011;33733;52.456;13.620;2023-06-22T04:52:41;9.13;;;4.57;;
47966;SDS011;33733;52.456;13.620;2023-06-22T04:55:07;10.70;;;4.20;;
47966;SDS011;33733;52.456;13.620;2023-06-22T04:57:35;8.82;;;4.13;;
47966;SDS011;33733;52.456;13.620;2023-06-22T05:00:02;7.07;;;4.50;;
47966;SDS011;33733;52.456;13.620;2023-06-22T05:02:43;8.73;;;5.45;;
47966;SDS011;33733;52.456;13.620;2023-06-22T05:05:12;8.60;;;5.65;;
47966;SDS011;33733;52.456;13.620;2023-06-22T05:07:43;7.32;;;4.90;;
47966;SDS011;33733;52.456;13.620;2023-06-22T05:10:11;8.57;;;5.70;;
47966;SDS011;33733;52.456;13.620;2023-06-22T05:12:39;6.65;;;3.70;;
47966;SDS011;33733;52.456;13.620;2023-06-22T05:15:07;7.70;;;4.60;;
47966;SDS011;33733;52.456;13.620;2023-06-22T05:17:34;7.93;;;4.38;;
47966;SDS011;33733;52.456;13.620;2023-06-22T05:20:02;9.00;;;5.10;;
47966;SDS011;33733;52.456;13.620;2023-06-22T05:22:32;8.40;;;4.28;;
47966;SDS011;33733;52.456;13.620;2023-06-22T05:24:59;7.40;;;3.03;;
47966;SDS011;33733;52.456;13.620;2023-06-22T05:27:25;8.63;;;4.35;;
47966;SDS011;33733;52.456;13.620;2023-06-22T05:29:52;7.20;;;3.72;;
47966;SDS011;33733;52.456;13.620;2023-06-22T05:32:19;6.10;;;2.70;;
47966;SDS011;33733;52.456;13.620;2023-06-22T05:34:46;6.57;;;2.95;;
47966;SDS011;33733;52.456;13.620;2023-06-22T05:37:12;7.82;;;4.28;;
47966;SDS011;33733;52.456;13.620;2023-06-22T05:39:39;7.28;;;3.92;;
47966;SDS011;33733;52.456;13.620;2023-06-22T05:42:06;5.93;;;3.67;;
47966;SDS011;33733;52.456;13.620;2023-06-22T05:44:36;5.30;;;2.03;;
47966;SDS011;33733;52.456;13.620;2023-06-22T05:47:03;6.00;;;3.08;;
47966;SDS011;33733;52.456;13.620;2023-06-22T05:49:30;8.13;;;4.40;;
47966;SDS011;33733;52.456;13.620;2023-06-22T05:51:59;5.88;;;3.05;;
47966;SDS011;33733;52.456;13.620;2023-06-22T05:54:29;6.47;;;3.15;;
47966;SDS011;33733;52.456;13.620;2023-06-22T05:56:56;5.47;;;3.05;;
47966;SDS011;33733;52.456;13.620;2023-06-22T05:59:23;5.20;;;2.67;;
47966;SDS011;33733;52.456;13.620;2023-06-22T06:01:49;5.40;;;2.83;;
47966;SDS011;33733;52.456;13.620;2023-06-22T06:04:17;6.00;;;3.05;;
47966;SDS011;33733;52.456;13.620;2023-06-22T06:06:44;5.68;;;2.70;;
47966;SDS011;33733;52.456;13.620;2023-06-22T06:09:11;3.95;;;1.48;;
47966;SDS011;33733;52.456;13.620;2023-06-22T06:11:38;4.80;;;1.40;;
47966;SDS011;33733;52.456;13.620;2023-06-22T06:14:04;6.22;;;2.35;;
47966;SDS011;33733;52.456;13.620;2023-06-22T06:16:31;4.30;;;1.45;;
47966;SDS011;33733;52.456;13.620;2023-06-22T06:18:58;3.88;;;0.93;;
47966;SDS011;33733;52.456;13.620;2023-06-22T06:21:25;4.65;;;2.42;;
47966;SDS011;33733;52.456;13.620;2023-06-22T06:23:53;4.43;;;1.77;;
47966;SDS011;33733;52.456;13.620;2023-06-22T06:26:20;6.13;;;2.22;;
47966;SDS011;33733;52.456;13.620;2023-06-22T06:28:55;4.60;;;1.45;;
47966;SDS011;33733;52.456;13.620;2023-06-22T06:31:23;5.00;;;2.63;;
47966;SDS011;33733;52.456;13.620;2023-06-22T06:33:50;4.47;;;2.05;;
47966;SDS011;33733;52.456;13.620;2023-06-22T06:36:16;5.07;;;2.63;;
47966;SDS011;33733;52.456;13.620;2023-06-22T06:38:43;4.10;;;1.55;;
47966;SDS011;33733;52.456;13.620;2023-06-22T06:41:10;4.70;;;2.70;;
47966;SDS011;33733;52.456;13.620;2023-06-22T06:43:36;3.90;;;1.27;;
47966;SDS011;33733;52.456;13.620;2023-06-22T06:46:03;4.70;;;2.88;;
47966;SDS011;33733;52.456;13.620;2023-06-22T06:48:29;4.35;;;1.65;;
47966;SDS011;33733;52.456;13.620;2023-06-22T06:50:56;4.38;;;1.33;;
47966;SDS011;33733;52.456;13.620;2023-06-22T06:53:23;4.72;;;2.50;;
47966;SDS011;33733;52.456;13.620;2023-06-22T06:55:49;3.75;;;1.30;;
47966;SDS011;33733;52.456;13.620;2023-06-22T06:58:16;4.32;;;2.40;;
47966;SDS011;33733;52.456;13.620;2023-06-22T07:00:42;3.35;;;0.98;;
47966;SDS011;33733;52.456;13.620;2023-06-22T07:03:10;4.95;;;2.47;;
47966;SDS011;33733;52.456;13.620;2023-06-22T07:05:36;4.10;;;1.05;;
47966;SDS011;33733;52.456;13.620;2023-06-22T07:08:03;4.25;;;1.90;;
47966;SDS011;33733;52.456;13.620;2023-06-22T07:10:30;5.25;;;2.17;;
47966;SDS011;33733;52.456;13.620;2023-06-22T07:12:57;4.78;;;2.30;;
47966;SDS011;33733;52.456;13.620;2023-06-22T07:15:24;3.72;;;1.20;;
47966;SDS011;33733;52.456;13.620;2023-06-22T07:17:50;3.95;;;1.95;;
47966;SDS011;33733;52.456;13.620;2023-06-22T07:20:17;4.70;;;2.25;;
47966;SDS011;33733;52.456;13.620;2023-06-22T07:22:45;5.85;;;2.63;;
47966;SDS011;33733;52.456;13.620;2023-06-22T07:25:12;5.40;;;2.75;;
47966;SDS011;33733;52.456;13.620;2023-06-22T07:27:44;4.85;;;2.40;;
47966;SDS011;33733;52.456;13.620;2023-06-22T07:30:12;5.80;;;2.60;;
47966;SDS011;33733;52.456;13.620;2023-06-22T07:32:40;4.72;;;1.42;;
47966;SDS011;33733;52.456;13.620;2023-06-22T07:35:07;5.10;;;2.92;;
47966;SDS011;33733;52.456;13.620;2023-06-22T07:37:34;4.72;;;1.17;;
47966;SDS011;33733;52.456;13.620;2023-06-22T07:40:01;5.68;;;2.40;;
47966;SDS011;33733;52.456;13.620;2023-06-22T07:42:32;4.43;;;2.42;;
47966;SDS011;33733;52.456;13.620;2023-06-22T07:45:02;4.43;;;1.67;;
47966;SDS011;33733;52.456;13.620;2023-06-22T07:47:29;3.72;;;0.80;;
47966;SDS011;33733;52.456;13.620;2023-06-22T07:49:58;4.47;;;2.35;;
47966;SDS011;33733;52.456;13.620;2023-06-22T07:52:28;4.35;;;2.33;;
47966;SDS011;33733;52.456;13.620;2023-06-22T07:54:54;4.20;;;1.88;;
47966;SDS011;33733;52.456;13.620;2023-06-22T07:57:21;4.47;;;2.80;;
47966;SDS011;33733;52.456;13.620;2023-06-22T07:59:48;4.70;;;2.53;;
47966;SDS011;33733;52.456;13.620;2023-06-22T08:02:14;4.60;;;2.40;;
47966;SDS011;33733;52.456;13.620;2023-06-22T08:04:41;5.18;;;2.47;;
47966;SDS011;33733;52.456;13.620;2023-06-22T08:07:08;5.45;;;2.10;;
47966;SDS011;33733;52.456;13.620;2023-06-22T08:09:35;3.42;;;1.05;;
47966;SDS011;33733;52.456;13.620;2023-06-22T08:12:02;4.57;;;2.15;;
47966;SDS011;33733;52.456;13.620;2023-06-22T08:14:29;5.13;;;1.30;;
47966;SDS011;33733;52.456;13.620;2023-06-22T08:16:56;5.03;;;2.67;;
47966;SDS011;33733;52.456;13.620;2023-06-22T08:19:23;4.63;;;2.17;;
47966;SDS011;33733;52.456;13.620;2023-06-22T08:21:49;4.97;;;2.00;;
47966;SDS011;33733;52.456;13.620;2023-06-22T08:24:16;4.25;;;2.08;;
47966;SDS011;33733;52.456;13.620;2023-06-22T08:26:43;4.80;;;1.40;;
47966;SDS011;33733;52.456;13.620;2023-06-22T08:29:09;4.43;;;1.48;;
47966;SDS011;33733;52.456;13.620;2023-06-22T08:31:37;11.50;;;6.47;;
47966;SDS011;33733;52.456;13.620;2023-06-22T08:34:03;10.20;;;6.18;;
47966;SDS011;33733;52.456;13.620;2023-06-22T08:36:33;5.47;;;2.03;;
47966;SDS011;33733;52.456;13.620;2023-06-22T08:39:03;4.68;;;1.77;;
47966;SDS011;33733;52.456;13.620;2023-06-22T08:41:30;5.82;;;2.35;;
47966;SDS011;33733;52.456;13.620;2023-06-22T08:43:57;5.28;;;2.67;;
47966;SDS011;33733;52.456;13.620;2023-06-22T08:46:24;4.50;;;1.13;;
47966;SDS011;33733;52.456;13.620;2023-06-22T08:48:56;3.75;;;1.00;;
47966;SDS011;33733;52.456;13.620;2023-06-22T08:51:24;4.28;;;1.98;;
47966;SDS011;33733;52.456;13.620;2023-06-22T08:53:50;4.35;;;2.28;;
47966;SDS011;33733;52.456;13.620;2023-06-22T08:56:17;5.72;;;2.75;;
47966;SDS011;33733;52.456;13.620;2023-06-22T08:58:44;4.00;;;2.10;;
47966;SDS011;33733;52.456;13.620;2023-06-22T09:01:11;3.97;;;1.67;;
47966;SDS011;33733;52.456;13.620;2023-06-22T09:03:37;3.33;;;1.00;;
47966;SDS011;33733;52.456;13.620;2023-06-22T09:06:04;3.63;;;0.95;;
47966;SDS011;33733;52.456;13.620;2023-06-22T09:08:31;3.25;;;1.00;;
47966;SDS011;33733;52.456;13.620;2023-06-22T09:10:58;5.20;;;2.55;;
47966;SDS011;33733;52.456;13.620;2023-06-22T09:13:25;4.03;;;1.40;;
47966;SDS011;33733;52.456;13.620;2023-06-22T09:15:51;3.65;;;1.00;;
47966;SDS011;33733;52.456;13.620;2023-06-22T09:18:18;5.00;;;2.13;;
47966;SDS011;33733;52.456;13.620;2023-06-22T09:20:45;3.95;;;1.42;;
47966;SDS011;33733;52.456;13.620;2023-06-22T09:23:12;4.30;;;2.42;;
47966;SDS011;33733;52.456;13.620;2023-06-22T09:25:38;4.45;;;2.33;;
47966;SDS011;33733;52.456;13.620;2023-06-22T09:28:06;4.65;;;2.30;;
47966;SDS011;33733;52.456;13.620;2023-06-22T09:30:33;3.83;;;1.35;;
47966;SDS011;33733;52.456;13.620;2023-06-22T09:32:59;4.25;;;1.40;;
47966;SDS011;33733;52.456;13.620;2023-06-22T09:35:27;5.25;;;2.20;;
47966;SDS011;33733;52.456;13.620;2023-06-22T09:37:54;3.95;;;1.38;;
47966;SDS011;33733;52.456;13.620;2023-06-22T09:40:21;3.08;;;1.00;;
47966;SDS011;33733;52.456;13.620;2023-06-22T09:42:48;2.95;;;0.70;;
47966;SDS011;33733;52.456;13.620;2023-06-22T09:45:15;4.53;;;1.15;;
47966;SDS011;33733;52.456;13.620;2023-06-22T09:47:41;8.07;;;2.38;;
47966;SDS011;33733;52.456;13.620;2023-06-22T09:50:09;5.20;;;2.30;;
47966;SDS011;33733;52.456;13.620;2023-06-22T09:52:36;3.22;;;1.23;;
47966;SDS011;33733;52.456;13.620;2023-06-22T09:55:05;4.93;;;2.88;;
47966;SDS011;33733;52.456;13.620;2023-06-22T09:57:32;3.97;;;1.48;;
47966;SDS011;33733;52.456;13.620;2023-06-22T09:59:59;4.53;;;2.45;;
47966;SDS011;33733;52.456;13.620;2023-06-22T10:02:26;4.07;;;2.03;;
47966;SDS011;33733;52.456;13.620;2023-06-22T10:04:52;3.65;;;1.73;;
47966;SDS011;33733;52.456;13.620;2023-06-22T10:07:20;3.15;;;1.00;;
47966;SDS011;33733;52.456;13.620;2023-06-22T10:09:46;4.15;;;1.83;;
47966;SDS011;33733;52.456;13.620;2023-06-22T10:12:13;3.50;;;1.15;;
47966;SDS011;33733;52.456;13.620;2023-06-22T10:14:40;4.43;;;1.98;;
47966;SDS011;33733;52.456;13.620;2023-06-22T10:17:06;6.22;;;3.33;;
47966;SDS011;33733;52.456;13.620;2023-06-22T10:19:33;4.70;;;2.78;;
47966;SDS011;33733;52.456;13.620;2023-06-22T10:22:03;3.67;;;1.85;;
47966;SDS011;33733;52.456;13.620;2023-06-22T10:24:31;4.97;;;2.17;;
47966;SDS011;33733;52.456;13.620;2023-06-22T10:26:57;4.18;;;2.42;;
47966;SDS011;33733;52.456;13.620;2023-06-22T10:29:24;2.85;;;0.73;;
47966;SDS011;33733;52.456;13.620;2023-06-22T10:31:51;3.88;;;2.13;;
47966;SDS011;33733;52.456;13.620;2023-06-22T10:34:17;4.30;;;1.77;;
47966;SDS011;33733;52.456;13.620;2023-06-22T10:36:44;4.25;;;2.17;;
47966;SDS011;33733;52.456;13.620;2023-06-22T10:39:14;3.97;;;2.03;;
47966;SDS011;33733;52.456;13.620;2023-06-22T10:41:41;4.32;;;2.22;;
47966;SDS011;33733;52.456;13.620;2023-06-22T10:44:08;4.20;;;2.08;;
47966;SDS011;33733;52.456;13.620;2023-06-22T10:46:35;3.65;;;1.20;;
47966;SDS011;33733;52.456;13.620;2023-06-22T10:49:01;4.82;;;2.17;;
47966;SDS011;33733;52.456;13.620;2023-06-22T10:51:28;4.43;;;2.22;;
47966;SDS011;33733;52.456;13.620;2023-06-22T10:53:55;4.05;;;1.88;;
47966;SDS011;33733;52.456;13.620;2023-06-22T10:56:21;3.63;;;1.80;;
47966;SDS011;33733;52.456;13.620;2023-06-22T10:58:48;4.28;;;2.10;;
47966;SDS011;33733;52.456;13.620;2023-06-22T11:01:14;4.28;;;2.03;;
47966;SDS011;33733;52.456;13.620;2023-06-22T11:04:00;4.15;;;1.95;;
47966;SDS011;33733;52.456;13.620;2023-06-22T11:06:27;2.92;;;1.00;;
47966;SDS011;33733;52.456;13.620;2023-06-22T11:08:53;5.75;;;1.15;;
47966;SDS011;33733;52.456;13.620;2023-06-22T11:11:32;5.00;;;1.98;;
47966;SDS011;33733;52.456;13.620;2023-06-22T11:13:59;3.58;;;1.52;;
47966;SDS011;33733;52.456;13.620;2023-06-22T11:16:25;4.15;;;2.28;;
47966;SDS011;33733;52.456;13.620;2023-06-22T11:18:52;3.92;;;1.50;;
47966;SDS011;33733;52.456;13.620;2023-06-22T11:21:19;3.78;;;1.17;;
47966;SDS011;33733;52.456;13.620;2023-06-22T11:23:45;2.78;;;0.70;;
47966;SDS011;33733;52.456;13.620;2023-06-22T11:26:12;3.55;;;1.15;;
47966;SDS011;33733;52.456;13.620;2023-06-22T11:28:39;4.30;;;1.80;;
47966;SDS011;33733;52.456;13.620;2023-06-22T11:31:05;3.65;;;1.88;;
47966;SDS011;33733;52.456;13.620;2023-06-22T11:33:53;3.67;;;1.75;;
47966;SDS011;33733;52.456;13.620;2023-06-22T11:36:20;4.22;;;1.73;;
47966;SDS011;33733;52.456;13.620;2023-06-22T11:38:46;3.35;;;0.90;;
47966;SDS011;33733;52.456;13.620;2023-06-22T11:41:13;4.18;;;2.00;;
47966;SDS011;33733;52.456;13.620;2023-06-22T11:43:39;3.75;;;1.40;;
47966;SDS011;33733;52.456;13.620;2023-06-22T11:46:06;3.58;;;0.95;;
47966;SDS011;33733;52.456;13.620;2023-06-22T11:48:33;3.38;;;1.00;;
47966;SDS011;33733;52.456;13.620;2023-06-22T11:50:59;3.78;;;1.20;;
47966;SDS011;33733;52.456;13.620;2023-06-22T11:53:26;2.60;;;0.70;;
47966;SDS011;33733;52.456;13.620;2023-06-22T11:55:53;3.17;;;1.20;;
47966;SDS011;33733;52.456;13.620;2023-06-22T11:58:21;3.70;;;1.33;;
47966;SDS011;33733;52.456;13.620;2023-06-22T12:00:48;4.40;;;2.33;;
47966;SDS011;33733;52.456;13.620;2023-06-22T12:03:18;3.53;;;1.33;;
47966;SDS011;33733;52.456;13.620;2023-06-22T12:05:45;4.88;;;2.63;;
47966;SDS011;33733;52.456;13.620;2023-06-22T12:08:11;3.28;;;1.25;;
47966;SDS011;33733;52.456;13.620;2023-06-22T12:10:39;3.90;;;1.08;;
47966;SDS011;33733;52.456;13.620;2023-06-22T12:13:06;4.25;;;1.17;;
47966;SDS011;33733;52.456;13.620;2023-06-22T12:15:33;3.90;;;1.95;;
47966;SDS011;33733;52.456;13.620;2023-06-22T12:17:59;3.55;;;1.20;;
47966;SDS011;33733;52.456;13.620;2023-06-22T12:20:27;4.30;;;2.05;;
47966;SDS011;33733;52.456;13.620;2023-06-22T12:22:54;4.97;;;2.85;;
47966;SDS011;33733;52.456;13.620;2023-06-22T12:25:22;3.78;;;1.13;;
47966;SDS011;33733;52.456;13.620;2023-06-22T12:27:49;4.93;;;2.53;;
47966;SDS011;33733;52.456;13.620;2023-06-22T12:30:16;3.67;;;1.30;;
47966;SDS011;33733;52.456;13.620;2023-06-22T12:32:42;4.68;;;2.60;;
47966;SDS011;33733;52.456;13.620;2023-06-22T12:35:09;4.40;;;1.42;;
47966;SDS011;33733;52.456;13.620;2023-06-22T12:37:40;6.47;;;2.65;;
47966;SDS011;33733;52.456;13.620;2023-06-22T12:40:08;4.50;;;2.25;;
47966;SDS011;33733;52.456;13.620;2023-06-22T12:42:36;4.82;;;2.95;;
47966;SDS011;33733;52.456;13.620;2023-06-22T12:45:02;4.72;;;2.42;;
47966;SDS011;33733;52.456;13.620;2023-06-22T12:47:29;5.15;;;2.55;;
47966;SDS011;33733;52.456;13.620;2023-06-22T12:49:56;4.15;;;2.20;;
47966;SDS011;33733;52.456;13.620;2023-06-22T12:52:22;4.88;;;2.55;;
47966;SDS011;33733;52.456;13.620;2023-06-22T12:54:49;4.93;;;2.33;;
47966;SDS011;33733;52.456;13.620;2023-06-22T12:57:21;4.70;;;2.30;;
47966;SDS011;33733;52.456;13.620;2023-06-22T12:59:48;5.47;;;2.95;;
47966;SDS011;33733;52.456;13.620;2023-06-22T13:02:15;5.03;;;2.92;;
47966;SDS011;33733;52.456;13.620;2023-06-22T13:04:42;3.35;;;1.00;;
47966;SDS011;33733;52.456;13.620;2023-06-22T13:07:09;5.82;;;3.17;;
47966;SDS011;33733;52.456;13.620;2023-06-22T13:09:48;4.95;;;2.42;;
47966;SDS011;33733;52.456;13.620;2023-06-22T13:12:19;3.72;;;1.15;;
47966;SDS011;33733;52.456;13.620;2023-06-22T13:14:47;4.70;;;2.55;;
47966;SDS011;33733;52.456;13.620;2023-06-22T13:17:13;4.68;;;2.47;;
47966;SDS011;33733;52.456;13.620;2023-06-22T13:19:41;4.70;;;3.05;;
47966;SDS011;33733;52.456;13.620;2023-06-22T13:24:57;3.95;;;2.20;;
47966;SDS011;33733;52.456;13.620;2023-06-22T13:27:24;4.55;;;1.42;;
47966;SDS011;33733;52.456;13.620;2023-06-22T13:29:51;4.53;;;2.33;;
47966;SDS011;33733;52.456;13.620;2023-06-22T13:32:19;4.90;;;2.28;;
47966;SDS011;33733;52.456;13.620;2023-06-22T13:34:45;4.20;;;1.52;;
47966;SDS011;33733;52.456;13.620;2023-06-22T13:37:12;4.30;;;2.08;;
47966;SDS011;33733;52.456;13.620;2023-06-22T13:39:39;4.80;;;2.67;;
47966;SDS011;33733;52.456;13.620;2023-06-22T13:42:05;5.03;;;1.65;;
47966;SDS011;33733;52.456;13.620;2023-06-22T13:44:32;6.53;;;2.78;;
47966;SDS011;33733;52.456;13.620;2023-06-22T13:46:59;5.00;;;2.85;;
47966;SDS011;33733;52.456;13.620;2023-06-22T13:49:26;3.95;;;1.30;;
47966;SDS011;33733;52.456;13.620;2023-06-22T13:51:52;4.15;;;1.30;;
47966;SDS011;33733;52.456;13.620;2023-06-22T13:54:19;4.55;;;2.28;;
47966;SDS011;33733;52.456;13.620;2023-06-22T13:56:48;4.60;;;1.83;;
47966;SDS011;33733;52.456;13.620;2023-06-22T13:59:15;5.57;;;3.10;;
47966;SDS011;33733;52.456;13.620;2023-06-22T14:01:41;4.25;;;1.60;;
47966;SDS011;33733;52.456;13.620;2023-06-22T14:04:09;3.78;;;1.35;;
47966;SDS011;33733;52.456;13.620;2023-06-22T14:06:37;5.00;;;2.85;;
47966;SDS011;33733;52.456;13.620;2023-06-22T14:09:04;5.50;;;3.20;;
47966;SDS011;33733;52.456;13.620;2023-06-22T14:11:31;4.65;;;2.53;;
47966;SDS011;33733;52.456;13.620;2023-06-22T14:13:58;4.90;;;3.13;;
47966;SDS011;33733;52.456;13.620;2023-06-22T14:16:24;6.65;;;3.03;;
47966;SDS011;33733;52.456;13.620;2023-06-22T14:18:51;4.85;;;2.63;;
47966;SDS011;33733;52.456;13.620;2023-06-22T14:21:21;4.40;;;1.67;;
47966;SDS011;33733;52.456;13.620;2023-06-22T14:23:47;4.75;;;2.83;;
47966;SDS011;33733;52.456;13.620;2023-06-22T14:26:16;4.85;;;3.17;;
47966;SDS011;33733;52.456;13.620;2023-06-22T14:28:46;4.80;;;3.10;;
47966;SDS011;33733;52.456;13.620;2023-06-22T14:31:15;5.10;;;3.28;;
47966;SDS011;33733;52.456;13.620;2023-06-22T14:33:47;5.03;;;3.03;;
47966;SDS011;33733;52.456;13.620;2023-06-22T14:36:14;4.85;;;2.90;;
47966;SDS011;33733;52.456;13.620;2023-06-22T14:38:44;4.35;;;1.50;;
47966;SDS011;33733;52.456;13.620;2023-06-22T14:43:45;4.13;;;2.22;;
47966;SDS011;33733;52.456;13.620;2023-06-22T14:46:21;4.05;;;1.63;;
47966;SDS011;33733;52.456;13.620;2023-06-22T14:48:47;3.63;;;1.30;;
47966;SDS011;33733;52.456;13.620;2023-06-22T14:51:14;5.97;;;2.88;;
47966;SDS011;33733;52.456;13.620;2023-06-22T14:53:46;6.15;;;2.75;;
47966;SDS011;33733;52.456;13.620;2023-06-22T14:56:13;4.40;;;2.35;;
47966;SDS011;33733;52.456;13.620;2023-06-22T14:58:42;5.15;;;1.77;;
47966;SDS011;33733;52.456;13.620;2023-06-22T15:01:12;3.80;;;1.30;;
47966;SDS011;33733;52.456;13.620;2023-06-22T15:03:41;4.40;;;1.48;;